sensor_id;sensor_type;location;lat;lon;timestamp;P1;durP1;ratioP1;P2;durP2;ratioP2
14847;SDS011;7516;43.570;1.448;2022-09-03T00:02:30;4.28;;;1.75;;
14847;SDS011;7516;43.570;1.448;2022-09-03T00:05:05;4.03;;;1.98;;
14847;SDS011;7516;43.570;1.448;2022-09-03T00:07:41;3.70;;;1.70;;
14847;SDS011;7516;43.570;1.448;2022-09-03T00:10:17;3.47;;;1.77;;
14847;SDS011;7516;43.570;1.448;2022-09-03T00:12:50;4.00;;;1.75;;
14847;SDS011;7516;43.570;1.448;2022-09-03T00:15:24;5.22;;;1.73;;
14847;SDS011;7516;43.570;1.448;2022-09-03T00:17:53;3.63;;;1.70;;
14847;SDS011;7516;43.570;1.448;2022-09-03T00:20:25;4.53;;;1.88;;
14847;SDS011;7516;43.570;1.448;2022-09-03T00:22:57;3.45;;;1.65;;
14847;SDS011;7516;43.570;1.448;2022-09-03T00:25:32;4.25;;;1.80;;
14847;SDS011;7516;43.570;1.448;2022-09-03T00:28:05;3.70;;;1.58;;
14847;SDS011;7516;43.570;1.448;2022-09-03T00:30:38;3.70;;;1.70;;
14847;SDS011;7516;43.570;1.448;2022-09-03T00:33:08;2.83;;;1.70;;
14847;SDS011;7516;43.570;1.448;2022-09-03T00:35:42;3.53;;;1.90;;
14847;SDS011;7516;43.570;1.448;2022-09-03T00:38:13;6.13;;;1.98;;
14847;SDS011;7516;43.570;1.448;2022-09-03T00:40:44;2.85;;;1.67;;
14847;SDS011;7516;43.570;1.448;2022-09-03T00:43:23;3.40;;;1.90;;
14847;SDS011;7516;43.570;1.448;2022-09-03T00:46:06;3.08;;;1.60;;
14847;SDS011;7516;43.570;1.448;2022-09-03T00:48:46;3.03;;;1.60;;
14847;SDS011;7516;43.570;1.448;2022-09-03T00:51:30;2.50;;;1.67;;
14847;SDS011;7516;43.570;1.448;2022-09-03T00:54:05;3.45;;;1.38;;
14847;SDS011;7516;43.570;1.448;2022-09-03T00:56:41;4.47;;;1.80;;
14847;SDS011;7516;43.570;1.448;2022-09-03T00:59:21;2.05;;;1.35;;
14847;SDS011;7516;43.570;1.448;2022-09-03T01:02:00;3.55;;;1.40;;
14847;SDS011;7516;43.570;1.448;2022-09-03T01:04:42;2.35;;;1.50;;
14847;SDS011;7516;43.570;1.448;2022-09-03T01:07:22;3.53;;;1.55;;
14847;SDS011;7516;43.570;1.448;2022-09-03T01:10:04;3.53;;;1.88;;
14847;SDS011;7516;43.570;1.448;2022-09-03T01:12:43;3.58;;;1.55;;
14847;SDS011;7516;43.570;1.448;2022-09-03T01:15:19;2.65;;;1.67;;
14847;SDS011;7516;43.570;1.448;2022-09-03T01:17:58;3.65;;;1.42;;
14847;SDS011;7516;43.570;1.448;2022-09-03T01:20:34;2.60;;;1.80;;
14847;SDS011;7516;43.570;1.448;2022-09-03T01:26:14;2.90;;;1.50;;
14847;SDS011;7516;43.570;1.448;2022-09-03T01:28:56;4.00;;;1.70;;
14847;SDS011;7516;43.570;1.448;2022-09-03T01:31:36;3.95;;;1.58;;
14847;SDS011;7516;43.570;1.448;2022-09-03T01:34:14;3.38;;;1.55;;
14847;SDS011;7516;43.570;1.448;2022-09-03T01:36:51;3.88;;;1.65;;
14847;SDS011;7516;43.570;1.448;2022-09-03T01:39:34;3.78;;;2.08;;
14847;SDS011;7516;43.570;1.448;2022-09-03T01:42:13;2.38;;;1.55;;
14847;SDS011;7516;43.570;1.448;2022-09-03T01:45:01;2.92;;;1.52;;
14847;SDS011;7516;43.570;1.448;2022-09-03T01:48:00;2.80;;;1.38;;
14847;SDS011;7516;43.570;1.448;2022-09-03T01:50:38;3.92;;;1.77;;
14847;SDS011;7516;43.570;1.448;2022-09-03T01:53:14;2.38;;;1.58;;
14847;SDS011;7516;43.570;1.448;2022-09-03T01:56:05;4.85;;;2.20;;
14847;SDS011;7516;43.570;1.448;2022-09-03T01:58:51;3.10;;;1.50;;
14847;SDS011;7516;43.570;1.448;2022-09-03T02:01:29;4.22;;;2.20;;
14847;SDS011;7516;43.570;1.448;2022-09-03T02:04:01;5.25;;;2.42;;
14847;SDS011;7516;43.570;1.448;2022-09-03T02:06:44;3.67;;;2.20;;
14847;SDS011;7516;43.570;1.448;2022-09-03T02:09:13;4.47;;;2.30;;
14847;SDS011;7516;43.570;1.448;2022-09-03T02:11:40;4.70;;;1.90;;
14847;SDS011;7516;43.570;1.448;2022-09-03T02:14:10;5.07;;;2.47;;
14847;SDS011;7516;43.570;1.448;2022-09-03T02:16:40;3.83;;;2.42;;
14847;SDS011;7516;43.570;1.448;2022-09-03T02:19:09;5.15;;;2.22;;
14847;SDS011;7516;43.570;1.448;2022-09-03T02:21:42;5.75;;;2.50;;
14847;SDS011;7516;43.570;1.448;2022-09-03T02:24:15;4.10;;;2.13;;
14847;SDS011;7516;43.570;1.448;2022-09-03T02:26:42;4.03;;;2.28;;
14847;SDS011;7516;43.570;1.448;2022-09-03T02:29:11;4.15;;;2.13;;
14847;SDS011;7516;43.570;1.448;2022-09-03T02:31:40;4.65;;;2.00;;
14847;SDS011;7516;43.570;1.448;2022-09-03T02:34:08;4.22;;;2.13;;
14847;SDS011;7516;43.570;1.448;2022-09-03T02:36:36;3.58;;;2.08;;
14847;SDS011;7516;43.570;1.448;2022-09-03T02:39:06;3.45;;;2.20;;
14847;SDS011;7516;43.570;1.448;2022-09-03T02:41:34;3.45;;;2.10;;
14847;SDS011;7516;43.570;1.448;2022-09-03T02:44:02;3.15;;;2.00;;
14847;SDS011;7516;43.570;1.448;2022-09-03T02:46:34;2.97;;;1.95;;
14847;SDS011;7516;43.570;1.448;2022-09-03T02:49:06;3.45;;;1.98;;
14847;SDS011;7516;43.570;1.448;2022-09-03T02:51:35;2.75;;;2.10;;
14847;SDS011;7516;43.570;1.448;2022-09-03T02:54:03;4.00;;;1.88;;
14847;SDS011;7516;43.570;1.448;2022-09-03T02:56:31;4.05;;;1.83;;
14847;SDS011;7516;43.570;1.448;2022-09-03T02:58:59;3.88;;;1.90;;
14847;SDS011;7516;43.570;1.448;2022-09-03T03:01:28;3.92;;;2.03;;
14847;SDS011;7516;43.570;1.448;2022-09-03T03:03:56;2.53;;;1.80;;
14847;SDS011;7516;43.570;1.448;2022-09-03T03:06:24;1.67;;;1.45;;
14847;SDS011;7516;43.570;1.448;2022-09-03T03:08:52;3.35;;;1.75;;
14847;SDS011;7516;43.570;1.448;2022-09-03T03:11:20;2.50;;;1.85;;
14847;SDS011;7516;43.570;1.448;2022-09-03T03:13:49;4.75;;;2.65;;
14847;SDS011;7516;43.570;1.448;2022-09-03T03:16:17;3.28;;;1.85;;
14847;SDS011;7516;43.570;1.448;2022-09-03T03:18:45;3.42;;;2.00;;
14847;SDS011;7516;43.570;1.448;2022-09-03T03:21:13;4.32;;;1.83;;
14847;SDS011;7516;43.570;1.448;2022-09-03T03:23:43;2.50;;;2.00;;
14847;SDS011;7516;43.570;1.448;2022-09-03T03:26:12;3.75;;;1.92;;
14847;SDS011;7516;43.570;1.448;2022-09-03T03:28:42;2.50;;;1.67;;
14847;SDS011;7516;43.570;1.448;2022-09-03T03:31:11;4.07;;;1.80;;
14847;SDS011;7516;43.570;1.448;2022-09-03T03:33:40;3.45;;;2.10;;
14847;SDS011;7516;43.570;1.448;2022-09-03T03:36:09;3.03;;;1.58;;
14847;SDS011;7516;43.570;1.448;2022-09-03T03:38:39;3.30;;;1.88;;
14847;SDS011;7516;43.570;1.448;2022-09-03T03:41:08;3.42;;;1.90;;
14847;SDS011;7516;43.570;1.448;2022-09-03T03:43:37;2.97;;;1.60;;
14847;SDS011;7516;43.570;1.448;2022-09-03T03:46:05;3.25;;;2.00;;
14847;SDS011;7516;43.570;1.448;2022-09-03T03:48:33;2.88;;;1.90;;
14847;SDS011;7516;43.570;1.448;2022-09-03T03:51:00;3.03;;;1.60;;
14847;SDS011;7516;43.570;1.448;2022-09-03T03:53:29;4.05;;;1.70;;
14847;SDS011;7516;43.570;1.448;2022-09-03T03:55:57;2.50;;;1.70;;
14847;SDS011;7516;43.570;1.448;2022-09-03T03:58:28;3.03;;;1.60;;
14847;SDS011;7516;43.570;1.448;2022-09-03T04:01:02;4.40;;;1.90;;
14847;SDS011;7516;43.570;1.448;2022-09-03T04:03:30;2.53;;;1.45;;
14847;SDS011;7516;43.570;1.448;2022-09-03T04:05:58;3.83;;;1.90;;
14847;SDS011;7516;43.570;1.448;2022-09-03T04:08:26;3.40;;;1.67;;
14847;SDS011;7516;43.570;1.448;2022-09-03T04:10:58;1.95;;;1.50;;
14847;SDS011;7516;43.570;1.448;2022-09-03T04:13:28;4.00;;;2.03;;
14847;SDS011;7516;43.570;1.448;2022-09-03T04:16:00;3.08;;;1.73;;
14847;SDS011;7516;43.570;1.448;2022-09-03T04:18:29;3.13;;;1.90;;
14847;SDS011;7516;43.570;1.448;2022-09-03T04:20:58;2.75;;;1.50;;
14847;SDS011;7516;43.570;1.448;2022-09-03T04:23:29;4.13;;;1.58;;
14847;SDS011;7516;43.570;1.448;2022-09-03T04:25:56;3.42;;;2.25;;
14847;SDS011;7516;43.570;1.448;2022-09-03T04:28:24;4.10;;;1.75;;
14847;SDS011;7516;43.570;1.448;2022-09-03T04:30:54;2.38;;;1.80;;
14847;SDS011;7516;43.570;1.448;2022-09-03T04:33:26;2.47;;;1.60;;
14847;SDS011;7516;43.570;1.448;2022-09-03T04:36:00;3.22;;;1.85;;
14847;SDS011;7516;43.570;1.448;2022-09-03T04:38:29;3.33;;;1.75;;
14847;SDS011;7516;43.570;1.448;2022-09-03T04:40:57;3.72;;;1.90;;
14847;SDS011;7516;43.570;1.448;2022-09-03T04:43:25;3.33;;;1.77;;
14847;SDS011;7516;43.570;1.448;2022-09-03T04:45:56;3.63;;;1.73;;
14847;SDS011;7516;43.570;1.448;2022-09-03T04:48:24;3.92;;;1.70;;
14847;SDS011;7516;43.570;1.448;2022-09-03T04:50:52;2.65;;;1.85;;
14847;SDS011;7516;43.570;1.448;2022-09-03T04:53:20;3.20;;;2.00;;
14847;SDS011;7516;43.570;1.448;2022-09-03T04:55:47;2.50;;;1.50;;
14847;SDS011;7516;43.570;1.448;2022-09-03T04:58:15;3.30;;;1.90;;
14847;SDS011;7516;43.570;1.448;2022-09-03T05:00:43;2.53;;;1.50;;
14847;SDS011;7516;43.570;1.448;2022-09-03T05:03:11;3.33;;;1.58;;
14847;SDS011;7516;43.570;1.448;2022-09-03T05:05:39;4.22;;;1.90;;
14847;SDS011;7516;43.570;1.448;2022-09-03T05:08:06;2.72;;;2.00;;
14847;SDS011;7516;43.570;1.448;2022-09-03T05:10:34;3.25;;;2.20;;
14847;SDS011;7516;43.570;1.448;2022-09-03T05:13:03;3.97;;;1.88;;
14847;SDS011;7516;43.570;1.448;2022-09-03T05:15:31;3.20;;;1.60;;
14847;SDS011;7516;43.570;1.448;2022-09-03T05:17:59;2.03;;;1.67;;
14847;SDS011;7516;43.570;1.448;2022-09-03T05:20:29;2.45;;;1.90;;
14847;SDS011;7516;43.570;1.448;2022-09-03T05:23:00;3.35;;;1.70;;
14847;SDS011;7516;43.570;1.448;2022-09-03T05:25:28;7.25;;;1.73;;
14847;SDS011;7516;43.570;1.448;2022-09-03T05:27:57;2.42;;;1.60;;
14847;SDS011;7516;43.570;1.448;2022-09-03T05:30:25;2.88;;;1.88;;
14847;SDS011;7516;43.570;1.448;2022-09-03T05:32:54;2.63;;;1.60;;
14847;SDS011;7516;43.570;1.448;2022-09-03T05:35:21;2.65;;;1.60;;
14847;SDS011;7516;43.570;1.448;2022-09-03T05:37:52;3.05;;;1.77;;
14847;SDS011;7516;43.570;1.448;2022-09-03T05:40:21;2.60;;;1.80;;
14847;SDS011;7516;43.570;1.448;2022-09-03T05:42:53;3.97;;;1.70;;
14847;SDS011;7516;43.570;1.448;2022-09-03T05:45:23;3.05;;;1.60;;
14847;SDS011;7516;43.570;1.448;2022-09-03T05:47:50;4.38;;;1.70;;
14847;SDS011;7516;43.570;1.448;2022-09-03T05:50:17;3.08;;;1.65;;
14847;SDS011;7516;43.570;1.448;2022-09-03T05:52:45;3.25;;;1.95;;
14847;SDS011;7516;43.570;1.448;2022-09-03T05:55:14;3.45;;;1.85;;
14847;SDS011;7516;43.570;1.448;2022-09-03T05:57:42;2.80;;;1.77;;
14847;SDS011;7516;43.570;1.448;2022-09-03T06:00:10;3.45;;;1.67;;
14847;SDS011;7516;43.570;1.448;2022-09-03T06:02:38;2.88;;;1.83;;
14847;SDS011;7516;43.570;1.448;2022-09-03T06:05:06;3.03;;;1.88;;
14847;SDS011;7516;43.570;1.448;2022-09-03T06:07:34;2.70;;;1.83;;
14847;SDS011;7516;43.570;1.448;2022-09-03T06:10:01;2.92;;;1.70;;
14847;SDS011;7516;43.570;1.448;2022-09-03T06:12:31;3.05;;;1.80;;
14847;SDS011;7516;43.570;1.448;2022-09-03T06:14:59;2.83;;;1.60;;
14847;SDS011;7516;43.570;1.448;2022-09-03T06:17:26;2.35;;;1.73;;
14847;SDS011;7516;43.570;1.448;2022-09-03T06:19:54;4.15;;;1.60;;
14847;SDS011;7516;43.570;1.448;2022-09-03T06:22:21;3.35;;;1.63;;
14847;SDS011;7516;43.570;1.448;2022-09-03T06:24:52;2.63;;;1.60;;
14847;SDS011;7516;43.570;1.448;2022-09-03T06:27:19;3.13;;;1.60;;
14847;SDS011;7516;43.570;1.448;2022-09-03T06:29:48;3.35;;;1.50;;
14847;SDS011;7516;43.570;1.448;2022-09-03T06:32:16;2.65;;;1.35;;
14847;SDS011;7516;43.570;1.448;2022-09-03T06:34:43;2.03;;;1.48;;
14847;SDS011;7516;43.570;1.448;2022-09-03T06:37:11;2.88;;;1.35;;
14847;SDS011;7516;43.570;1.448;2022-09-03T06:39:38;2.95;;;1.67;;
14847;SDS011;7516;43.570;1.448;2022-09-03T06:42:06;4.75;;;1.50;;
14847;SDS011;7516;43.570;1.448;2022-09-03T06:44:34;2.40;;;1.50;;
14847;SDS011;7516;43.570;1.448;2022-09-03T06:47:03;2.50;;;1.38;;
14847;SDS011;7516;43.570;1.448;2022-09-03T06:49:30;2.30;;;1.55;;
14847;SDS011;7516;43.570;1.448;2022-09-03T06:51:58;3.13;;;1.40;;
14847;SDS011;7516;43.570;1.448;2022-09-03T06:54:25;4.45;;;1.45;;
14847;SDS011;7516;43.570;1.448;2022-09-03T06:56:53;2.35;;;1.45;;
14847;SDS011;7516;43.570;1.448;2022-09-03T06:59:20;2.35;;;1.50;;
14847;SDS011;7516;43.570;1.448;2022-09-03T07:01:48;2.15;;;1.45;;
14847;SDS011;7516;43.570;1.448;2022-09-03T07:04:17;3.10;;;1.50;;
14847;SDS011;7516;43.570;1.448;2022-09-03T07:06:45;2.20;;;1.40;;
14847;SDS011;7516;43.570;1.448;2022-09-03T07:09:13;1.92;;;1.45;;
14847;SDS011;7516;43.570;1.448;2022-09-03T07:11:43;2.05;;;1.40;;
14847;SDS011;7516;43.570;1.448;2022-09-03T07:14:14;3.95;;;1.80;;
14847;SDS011;7516;43.570;1.448;2022-09-03T07:16:42;2.28;;;1.67;;
14847;SDS011;7516;43.570;1.448;2022-09-03T07:19:11;3.03;;;1.60;;
14847;SDS011;7516;43.570;1.448;2022-09-03T07:21:40;4.38;;;1.73;;
14847;SDS011;7516;43.570;1.448;2022-09-03T07:24:08;3.38;;;1.85;;
14847;SDS011;7516;43.570;1.448;2022-09-03T07:26:37;3.10;;;2.08;;
14847;SDS011;7516;43.570;1.448;2022-09-03T07:29:08;2.38;;;1.83;;
14847;SDS011;7516;43.570;1.448;2022-09-03T07:31:37;4.05;;;1.83;;
14847;SDS011;7516;43.570;1.448;2022-09-03T07:34:07;5.93;;;1.95;;
14847;SDS011;7516;43.570;1.448;2022-09-03T07:36:37;2.42;;;1.92;;
14847;SDS011;7516;43.570;1.448;2022-09-03T07:39:08;4.07;;;2.00;;
14847;SDS011;7516;43.570;1.448;2022-09-03T07:41:37;3.53;;;1.95;;
14847;SDS011;7516;43.570;1.448;2022-09-03T07:44:07;3.42;;;2.10;;
14847;SDS011;7516;43.570;1.448;2022-09-03T07:46:36;4.40;;;2.03;;
14847;SDS011;7516;43.570;1.448;2022-09-03T07:49:04;4.13;;;2.10;;
14847;SDS011;7516;43.570;1.448;2022-09-03T07:51:33;2.88;;;1.98;;
14847;SDS011;7516;43.570;1.448;2022-09-03T07:54:03;3.20;;;1.77;;
14847;SDS011;7516;43.570;1.448;2022-09-03T07:56:34;2.30;;;1.73;;
14847;SDS011;7516;43.570;1.448;2022-09-03T07:59:02;4.60;;;2.25;;
14847;SDS011;7516;43.570;1.448;2022-09-03T08:01:30;2.75;;;1.80;;
14847;SDS011;7516;43.570;1.448;2022-09-03T08:03:59;3.05;;;1.98;;
14847;SDS011;7516;43.570;1.448;2022-09-03T08:06:28;3.65;;;1.90;;
14847;SDS011;7516;43.570;1.448;2022-09-03T08:08:57;3.25;;;2.10;;
14847;SDS011;7516;43.570;1.448;2022-09-03T08:11:27;3.63;;;1.80;;
14847;SDS011;7516;43.570;1.448;2022-09-03T08:13:56;3.08;;;1.70;;
14847;SDS011;7516;43.570;1.448;2022-09-03T08:16:27;3.45;;;1.67;;
14847;SDS011;7516;43.570;1.448;2022-09-03T08:18:56;2.75;;;1.73;;
14847;SDS011;7516;43.570;1.448;2022-09-03T08:21:24;3.10;;;1.75;;
14847;SDS011;7516;43.570;1.448;2022-09-03T08:23:54;3.55;;;1.90;;
14847;SDS011;7516;43.570;1.448;2022-09-03T08:26:28;1.98;;;1.75;;
14847;SDS011;7516;43.570;1.448;2022-09-03T08:28:56;4.15;;;1.80;;
14847;SDS011;7516;43.570;1.448;2022-09-03T08:31:24;4.63;;;1.90;;
14847;SDS011;7516;43.570;1.448;2022-09-03T08:33:53;4.20;;;1.63;;
14847;SDS011;7516;43.570;1.448;2022-09-03T08:36:23;3.97;;;1.70;;
14847;SDS011;7516;43.570;1.448;2022-09-03T08:38:52;4.53;;;1.58;;
14847;SDS011;7516;43.570;1.448;2022-09-03T08:41:22;2.90;;;1.77;;
14847;SDS011;7516;43.570;1.448;2022-09-03T08:44:13;3.08;;;1.77;;
14847;SDS011;7516;43.570;1.448;2022-09-03T08:46:48;3.78;;;1.90;;
14847;SDS011;7516;43.570;1.448;2022-09-03T08:49:22;2.67;;;1.75;;
14847;SDS011;7516;43.570;1.448;2022-09-03T08:51:53;3.13;;;1.85;;
14847;SDS011;7516;43.570;1.448;2022-09-03T08:54:27;3.00;;;2.00;;
14847;SDS011;7516;43.570;1.448;2022-09-03T08:56:59;1.90;;;1.70;;
14847;SDS011;7516;43.570;1.448;2022-09-03T08:59:29;2.15;;;1.90;;
14847;SDS011;7516;43.570;1.448;2022-09-03T09:01:58;7.18;;;2.45;;
14847;SDS011;7516;43.570;1.448;2022-09-03T09:04:40;3.22;;;2.20;;
14847;SDS011;7516;43.570;1.448;2022-09-03T09:07:24;3.08;;;2.42;;
14847;SDS011;7516;43.570;1.448;2022-09-03T09:09:59;2.67;;;2.47;;
14847;SDS011;7516;43.570;1.448;2022-09-03T09:12:38;2.78;;;2.25;;
14847;SDS011;7516;43.570;1.448;2022-09-03T09:15:25;3.10;;;2.40;;
14847;SDS011;7516;43.570;1.448;2022-09-03T09:18:02;6.97;;;2.25;;
14847;SDS011;7516;43.570;1.448;2022-09-03T09:20:43;4.28;;;2.58;;
14847;SDS011;7516;43.570;1.448;2022-09-03T09:23:17;3.53;;;2.67;;
14847;SDS011;7516;43.570;1.448;2022-09-03T09:25:50;3.45;;;2.63;;
14847;SDS011;7516;43.570;1.448;2022-09-03T09:28:21;5.15;;;2.67;;
14847;SDS011;7516;43.570;1.448;2022-09-03T09:30:50;2.97;;;2.33;;
14847;SDS011;7516;43.570;1.448;2022-09-03T09:33:20;3.28;;;1.88;;
14847;SDS011;7516;43.570;1.448;2022-09-03T09:35:49;3.38;;;2.30;;
14847;SDS011;7516;43.570;1.448;2022-09-03T09:38:26;2.22;;;2.03;;
14847;SDS011;7516;43.570;1.448;2022-09-03T09:40:55;3.80;;;1.95;;
14847;SDS011;7516;43.570;1.448;2022-09-03T09:43:34;4.15;;;2.15;;
14847;SDS011;7516;43.570;1.448;2022-09-03T09:46:05;3.03;;;2.00;;
14847;SDS011;7516;43.570;1.448;2022-09-03T09:48:36;27.40;;;4.03;;
14847;SDS011;7516;43.570;1.448;2022-09-03T09:51:11;9.48;;;2.55;;
14847;SDS011;7516;43.570;1.448;2022-09-03T09:53:43;10.93;;;2.70;;
14847;SDS011;7516;43.570;1.448;2022-09-03T09:56:19;19.73;;;4.10;;
14847;SDS011;7516;43.570;1.448;2022-09-03T09:58:49;20.75;;;4.30;;
14847;SDS011;7516;43.570;1.448;2022-09-03T10:01:27;16.27;;;3.17;;
14847;SDS011;7516;43.570;1.448;2022-09-03T10:03:56;10.65;;;2.97;;
14847;SDS011;7516;43.570;1.448;2022-09-03T10:06:25;35.38;;;5.25;;
14847;SDS011;7516;43.570;1.448;2022-09-03T10:09:14;21.40;;;3.80;;
14847;SDS011;7516;43.570;1.448;2022-09-03T10:11:43;9.23;;;2.70;;
14847;SDS011;7516;43.570;1.448;2022-09-03T10:14:17;4.13;;;2.10;;
14847;SDS011;7516;43.570;1.448;2022-09-03T10:16:49;4.22;;;2.20;;
14847;SDS011;7516;43.570;1.448;2022-09-03T10:19:27;2.45;;;1.85;;
14847;SDS011;7516;43.570;1.448;2022-09-03T10:22:00;5.40;;;2.20;;
14847;SDS011;7516;43.570;1.448;2022-09-03T10:24:39;5.70;;;2.42;;
14847;SDS011;7516;43.570;1.448;2022-09-03T10:27:16;5.30;;;2.08;;
14847;SDS011;7516;43.570;1.448;2022-09-03T10:29:47;2.72;;;1.95;;
14847;SDS011;7516;43.570;1.448;2022-09-03T10:32:20;3.97;;;2.35;;
14847;SDS011;7516;43.570;1.448;2022-09-03T10:34:58;4.78;;;1.83;;
14847;SDS011;7516;43.570;1.448;2022-09-03T10:37:33;3.67;;;2.10;;
14847;SDS011;7516;43.570;1.448;2022-09-03T10:40:09;2.90;;;2.05;;
14847;SDS011;7516;43.570;1.448;2022-09-03T10:42:56;3.42;;;2.10;;
14847;SDS011;7516;43.570;1.448;2022-09-03T10:45:37;4.28;;;1.90;;
14847;SDS011;7516;43.570;1.448;2022-09-03T10:48:15;3.95;;;2.10;;
14847;SDS011;7516;43.570;1.448;2022-09-03T10:50:55;3.53;;;2.30;;
14847;SDS011;7516;43.570;1.448;2022-09-03T10:53:29;3.50;;;2.10;;
14847;SDS011;7516;43.570;1.448;2022-09-03T10:56:08;3.00;;;2.45;;
14847;SDS011;7516;43.570;1.448;2022-09-03T10:58:49;5.15;;;2.83;;
14847;SDS011;7516;43.570;1.448;2022-09-03T11:01:30;3.42;;;2.63;;
14847;SDS011;7516;43.570;1.448;2022-09-03T11:04:08;3.20;;;2.30;;
14847;SDS011;7516;43.570;1.448;2022-09-03T11:06:53;5.22;;;2.58;;
14847;SDS011;7516;43.570;1.448;2022-09-03T11:09:25;5.15;;;2.72;;
14847;SDS011;7516;43.570;1.448;2022-09-03T11:11:57;4.00;;;2.17;;
14847;SDS011;7516;43.570;1.448;2022-09-03T11:14:32;3.10;;;2.15;;
14847;SDS011;7516;43.570;1.448;2022-09-03T11:17:06;5.28;;;2.17;;
14847;SDS011;7516;43.570;1.448;2022-09-03T11:19:49;2.70;;;2.10;;
14847;SDS011;7516;43.570;1.448;2022-09-03T11:22:20;4.05;;;2.10;;
14847;SDS011;7516;43.570;1.448;2022-09-03T11:24:51;2.60;;;2.20;;
14847;SDS011;7516;43.570;1.448;2022-09-03T11:27:30;5.50;;;2.55;;
14847;SDS011;7516;43.570;1.448;2022-09-03T11:30:11;2.85;;;2.22;;
14847;SDS011;7516;43.570;1.448;2022-09-03T11:32:46;2.85;;;2.15;;
14847;SDS011;7516;43.570;1.448;2022-09-03T11:35:23;2.53;;;2.13;;
14847;SDS011;7516;43.570;1.448;2022-09-03T11:37:53;2.67;;;2.00;;
14847;SDS011;7516;43.570;1.448;2022-09-03T11:40:27;3.20;;;2.15;;
14847;SDS011;7516;43.570;1.448;2022-09-03T11:43:05;2.53;;;2.10;;
14847;SDS011;7516;43.570;1.448;2022-09-03T11:45:38;3.78;;;2.65;;
14847;SDS011;7516;43.570;1.448;2022-09-03T11:48:27;4.03;;;2.15;;
14847;SDS011;7516;43.570;1.448;2022-09-03T11:51:02;2.67;;;2.25;;
14847;SDS011;7516;43.570;1.448;2022-09-03T11:53:51;2.53;;;2.20;;
14847;SDS011;7516;43.570;1.448;2022-09-03T11:56:20;2.35;;;2.10;;
14847;SDS011;7516;43.570;1.448;2022-09-03T11:58:58;3.63;;;2.70;;
14847;SDS011;7516;43.570;1.448;2022-09-03T12:01:31;3.25;;;2.50;;
14847;SDS011;7516;43.570;1.448;2022-09-03T12:04:12;3.20;;;2.55;;
14847;SDS011;7516;43.570;1.448;2022-09-03T12:06:46;3.97;;;2.65;;
14847;SDS011;7516;43.570;1.448;2022-09-03T12:09:38;4.70;;;2.60;;
14847;SDS011;7516;43.570;1.448;2022-09-03T12:12:26;3.65;;;3.05;;
14847;SDS011;7516;43.570;1.448;2022-09-03T12:15:07;3.17;;;2.88;;
14847;SDS011;7516;43.570;1.448;2022-09-03T12:17:47;3.92;;;2.67;;
14847;SDS011;7516;43.570;1.448;2022-09-03T12:20:39;2.95;;;2.30;;
14847;SDS011;7516;43.570;1.448;2022-09-03T12:23:09;2.90;;;2.40;;
14847;SDS011;7516;43.570;1.448;2022-09-03T12:25:41;2.53;;;2.33;;
14847;SDS011;7516;43.570;1.448;2022-09-03T12:28:11;3.60;;;2.58;;
14847;SDS011;7516;43.570;1.448;2022-09-03T12:30:45;3.63;;;2.50;;
14847;SDS011;7516;43.570;1.448;2022-09-03T12:33:16;3.13;;;2.38;;
14847;SDS011;7516;43.570;1.448;2022-09-03T12:35:55;3.88;;;2.55;;
14847;SDS011;7516;43.570;1.448;2022-09-03T12:38:24;2.70;;;2.30;;
14847;SDS011;7516;43.570;1.448;2022-09-03T12:40:53;3.95;;;2.58;;
14847;SDS011;7516;43.570;1.448;2022-09-03T12:43:25;5.68;;;3.05;;
14847;SDS011;7516;43.570;1.448;2022-09-03T12:45:54;3.20;;;2.85;;
14847;SDS011;7516;43.570;1.448;2022-09-03T12:48:21;4.00;;;2.45;;
14847;SDS011;7516;43.570;1.448;2022-09-03T12:50:59;2.70;;;2.50;;
14847;SDS011;7516;43.570;1.448;2022-09-03T12:53:29;3.25;;;2.80;;
14847;SDS011;7516;43.570;1.448;2022-09-03T12:55:58;2.70;;;2.50;;
14847;SDS011;7516;43.570;1.448;2022-09-03T12:58:30;3.13;;;2.53;;
14847;SDS011;7516;43.570;1.448;2022-09-03T13:01:03;4.05;;;2.70;;
14847;SDS011;7516;43.570;1.448;2022-09-03T13:03:40;3.95;;;2.70;;
14847;SDS011;7516;43.570;1.448;2022-09-03T13:06:15;2.53;;;2.33;;
14847;SDS011;7516;43.570;1.448;2022-09-03T13:08:46;2.72;;;2.53;;
14847;SDS011;7516;43.570;1.448;2022-09-03T13:11:19;3.45;;;2.75;;
14847;SDS011;7516;43.570;1.448;2022-09-03T13:13:52;3.88;;;2.70;;
14847;SDS011;7516;43.570;1.448;2022-09-03T13:16:38;3.10;;;2.67;;
14847;SDS011;7516;43.570;1.448;2022-09-03T13:19:35;3.15;;;2.70;;
14847;SDS011;7516;43.570;1.448;2022-09-03T13:22:29;3.45;;;2.45;;
14847;SDS011;7516;43.570;1.448;2022-09-03T13:25:07;3.50;;;2.50;;
14847;SDS011;7516;43.570;1.448;2022-09-03T13:27:43;3.47;;;2.70;;
14847;SDS011;7516;43.570;1.448;2022-09-03T13:30:20;3.47;;;2.70;;
14847;SDS011;7516;43.570;1.448;2022-09-03T13:32:56;3.58;;;2.97;;
14847;SDS011;7516;43.570;1.448;2022-09-03T13:35:28;3.55;;;2.70;;
14847;SDS011;7516;43.570;1.448;2022-09-03T13:38:04;3.58;;;2.97;;
14847;SDS011;7516;43.570;1.448;2022-09-03T13:40:40;3.78;;;2.55;;
14847;SDS011;7516;43.570;1.448;2022-09-03T13:43:18;4.38;;;3.17;;
14847;SDS011;7516;43.570;1.448;2022-09-03T13:45:54;3.90;;;2.58;;
14847;SDS011;7516;43.570;1.448;2022-09-03T13:48:25;3.42;;;2.85;;
14847;SDS011;7516;43.570;1.448;2022-09-03T13:51:28;5.75;;;2.83;;
14847;SDS011;7516;43.570;1.448;2022-09-03T13:54:06;2.80;;;2.50;;
14847;SDS011;7516;43.570;1.448;2022-09-03T13:56:46;2.95;;;2.55;;
14847;SDS011;7516;43.570;1.448;2022-09-03T13:59:24;3.40;;;2.83;;
14847;SDS011;7516;43.570;1.448;2022-09-03T14:02:15;2.70;;;2.50;;
14847;SDS011;7516;43.570;1.448;2022-09-03T14:04:53;3.42;;;2.60;;
14847;SDS011;7516;43.570;1.448;2022-09-03T14:07:27;4.50;;;2.90;;
14847;SDS011;7516;43.570;1.448;2022-09-03T14:10:15;3.25;;;2.58;;
14847;SDS011;7516;43.570;1.448;2022-09-03T14:12:48;3.33;;;2.42;;
14847;SDS011;7516;43.570;1.448;2022-09-03T14:15:26;2.90;;;2.70;;
14847;SDS011;7516;43.570;1.448;2022-09-03T14:18:01;3.05;;;2.67;;
14847;SDS011;7516;43.570;1.448;2022-09-03T14:20:40;4.28;;;3.00;;
14847;SDS011;7516;43.570;1.448;2022-09-03T14:23:20;3.38;;;2.30;;
14847;SDS011;7516;43.570;1.448;2022-09-03T14:25:56;2.88;;;2.53;;
14847;SDS011;7516;43.570;1.448;2022-09-03T14:28:28;2.42;;;2.22;;
14847;SDS011;7516;43.570;1.448;2022-09-03T14:30:59;2.88;;;2.60;;
14847;SDS011;7516;43.570;1.448;2022-09-03T14:33:36;4.65;;;2.88;;
14847;SDS011;7516;43.570;1.448;2022-09-03T14:36:12;2.78;;;2.58;;
14847;SDS011;7516;43.570;1.448;2022-09-03T14:38:57;4.15;;;2.60;;
14847;SDS011;7516;43.570;1.448;2022-09-03T14:41:52;3.90;;;2.60;;
14847;SDS011;7516;43.570;1.448;2022-09-03T14:44:41;3.60;;;2.67;;
14847;SDS011;7516;43.570;1.448;2022-09-03T14:47:25;4.18;;;2.47;;
14847;SDS011;7516;43.570;1.448;2022-09-03T14:50:17;3.25;;;2.45;;
14847;SDS011;7516;43.570;1.448;2022-09-03T14:53:13;2.95;;;2.60;;
14847;SDS011;7516;43.570;1.448;2022-09-03T14:55:56;2.97;;;2.30;;
14847;SDS011;7516;43.570;1.448;2022-09-03T14:58:42;3.55;;;2.65;;
14847;SDS011;7516;43.570;1.448;2022-09-03T15:01:31;4.30;;;2.35;;
14847;SDS011;7516;43.570;1.448;2022-09-03T15:06:59;4.03;;;2.28;;
14847;SDS011;7516;43.570;1.448;2022-09-03T15:09:45;2.85;;;2.30;;
14847;SDS011;7516;43.570;1.448;2022-09-03T15:12:20;5.47;;;2.67;;
14847;SDS011;7516;43.570;1.448;2022-09-03T15:14:57;3.28;;;2.33;;
14847;SDS011;7516;43.570;1.448;2022-09-03T15:17:31;2.70;;;2.28;;
14847;SDS011;7516;43.570;1.448;2022-09-03T15:20:25;2.88;;;2.30;;
14847;SDS011;7516;43.570;1.448;2022-09-03T15:23:05;4.45;;;2.70;;
14847;SDS011;7516;43.570;1.448;2022-09-03T15:25:56;2.80;;;2.40;;
14847;SDS011;7516;43.570;1.448;2022-09-03T15:28:44;4.35;;;2.40;;
14847;SDS011;7516;43.570;1.448;2022-09-03T15:31:23;3.10;;;2.53;;
14847;SDS011;7516;43.570;1.448;2022-09-03T15:34:06;3.08;;;2.40;;
14847;SDS011;7516;43.570;1.448;2022-09-03T15:36:41;3.20;;;2.58;;
14847;SDS011;7516;43.570;1.448;2022-09-03T15:39:14;4.72;;;2.42;;
14847;SDS011;7516;43.570;1.448;2022-09-03T15:41:49;4.55;;;2.75;;
14847;SDS011;7516;43.570;1.448;2022-09-03T15:44:20;2.83;;;2.40;;
14847;SDS011;7516;43.570;1.448;2022-09-03T15:46:55;2.72;;;2.28;;